sensor_id;sensor_type;location;lat;lon;timestamp;pressure;altitude;pressure_sealevel;temperature;humidity
39141;BME280;24875;48.436;10.298;2023-07-31T00:00:45;96374.34;;;17.57;100.00
39141;BME280;24875;48.436;10.298;2023-07-31T00:03:12;96378.25;;;17.55;100.00
39141;BME280;24875;48.436;10.298;2023-07-31T00:05:38;96376.84;;;17.52;100.00
39141;BME280;24875;48.436;10.298;2023-07-31T00:08:05;96374.34;;;17.57;100.00
39141;BME280;24875;48.436;10.298;2023-07-31T00:10:33;96375.66;;;17.72;100.00
39141;BME280;24875;48.436;10.298;2023-07-31T00:12:59;96373.28;;;17.34;100.00
39141;BME280;24875;48.436;10.298;2023-07-31T00:15:26;96364.72;;;17.25;100.00
39141;BME280;24875;48.436;10.298;2023-07-31T00:17:52;96361.88;;;17.20;100.00
39141;BME280;24875;48.436;10.298;2023-07-31T00:20:19;96371.13;;;17.11;100.00
39141;BME280;24875;48.436;10.298;2023-07-31T00:22:46;96367.78;;;16.92;100.00
39141;BME280;24875;48.436;10.298;2023-07-31T00:25:12;96368.47;;;16.74;100.00
39141;BME280;24875;48.436;10.298;2023-07-31T00:27:40;96361.97;;;17.01;100.00
39141;BME280;24875;48.436;10.298;2023-07-31T00:30:10;96363.84;;;17.01;100.00
39141;BME280;24875;48.436;10.298;2023-07-31T00:32:37;96361.69;;;16.78;100.00
39141;BME280;24875;48.436;10.298;2023-07-31T00:35:04;96357.69;;;17.00;100.00
39141;BME280;24875;48.436;10.298;2023-07-31T00:37:31;96363.09;;;16.87;100.00
39141;BME280;24875;48.436;10.298;2023-07-31T00:39:57;96366.78;;;16.80;100.00
39141;BME280;24875;48.436;10.298;2023-07-31T00:42:24;96364.00;;;16.62;100.00
39141;BME280;24875;48.436;10.298;2023-07-31T00:44:52;96363.75;;;16.70;100.00
39141;BME280;24875;48.436;10.298;2023-07-31T00:47:18;96356.88;;;16.62;100.00
39141;BME280;24875;48.436;10.298;2023-07-31T00:49:45;96369.03;;;16.89;100.00
39141;BME280;24875;48.436;10.298;2023-07-31T00:52:12;96364.31;;;16.85;100.00
39141;BME280;24875;48.436;10.298;2023-07-31T00:54:39;96357.88;;;16.61;100.00
39141;BME280;24875;48.436;10.298;2023-07-31T00:57:06;96355.63;;;16.65;100.00
39141;BME280;24875;48.436;10.298;2023-07-31T00:59:33;96360.19;;;16.45;100.00
39141;BME280;24875;48.436;10.298;2023-07-31T01:02:02;96361.75;;;16.65;100.00
39141;BME280;24875;48.436;10.298;2023-07-31T01:04:29;96360.59;;;16.48;100.00
39141;BME280;24875;48.436;10.298;2023-07-31T01:07:00;96358.72;;;16.55;100.00
39141;BME280;24875;48.436;10.298;2023-07-31T01:09:32;96355.09;;;16.44;100.00
39141;BME280;24875;48.436;10.298;2023-07-31T01:12:02;96359.38;;;16.45;100.00
39141;BME280;24875;48.436;10.298;2023-07-31T01:14:29;96367.38;;;16.19;100.00
39141;BME280;24875;48.436;10.298;2023-07-31T01:16:56;96361.88;;;16.33;100.00
39141;BME280;24875;48.436;10.298;2023-07-31T01:19:25;96365.25;;;16.59;100.00
39141;BME280;24875;48.436;10.298;2023-07-31T01:22:04;96362.56;;;16.66;100.00
39141;BME280;24875;48.436;10.298;2023-07-31T01:24:49;96358.09;;;16.60;100.00
39141;BME280;24875;48.436;10.298;2023-07-31T01:27:24;96359.13;;;16.59;100.00
39141;BME280;24875;48.436;10.298;2023-07-31T01:29:56;96346.06;;;16.51;100.00
39141;BME280;24875;48.436;10.298;2023-07-31T01:32:27;96354.44;;;16.48;100.00
39141;BME280;24875;48.436;10.298;2023-07-31T01:34:55;96347.31;;;16.42;100.00
39141;BME280;24875;48.436;10.298;2023-07-31T01:37:28;96336.81;;;16.60;100.00
39141;BME280;24875;48.436;10.298;2023-07-31T01:39:54;96337.75;;;16.28;100.00
39141;BME280;24875;48.436;10.298;2023-07-31T01:42:22;96332.81;;;16.32;100.00
39141;BME280;24875;48.436;10.298;2023-07-31T01:44:48;96334.88;;;16.23;100.00
39141;BME280;24875;48.436;10.298;2023-07-31T01:47:15;96329.94;;;16.20;100.00
39141;BME280;24875;48.436;10.298;2023-07-31T01:49:41;96333.44;;;16.21;100.00
39141;BME280;24875;48.436;10.298;2023-07-31T01:52:08;96324.06;;;16.12;100.00
39141;BME280;24875;48.436;10.298;2023-07-31T01:54:34;96321.41;;;16.12;100.00
39141;BME280;24875;48.436;10.298;2023-07-31T01:57:02;96322.41;;;16.11;100.00
39141;BME280;24875;48.436;10.298;2023-07-31T01:59:30;96318.09;;;16.29;100.00
39141;BME280;24875;48.436;10.298;2023-07-31T02:01:56;96315.63;;;16.21;100.00
39141;BME280;24875;48.436;10.298;2023-07-31T02:04:22;96324.09;;;16.05;100.00
39141;BME280;24875;48.436;10.298;2023-07-31T02:06:49;96312.63;;;15.98;100.00
39141;BME280;24875;48.436;10.298;2023-07-31T02:09:15;96313.84;;;15.96;100.00
39141;BME280;24875;48.436;10.298;2023-07-31T02:11:42;96306.09;;;16.01;100.00
39141;BME280;24875;48.436;10.298;2023-07-31T02:14:08;96301.78;;;16.06;100.00
39141;BME280;24875;48.436;10.298;2023-07-31T02:16:36;96299.25;;;16.37;100.00
39141;BME280;24875;48.436;10.298;2023-07-31T02:19:03;96305.88;;;15.96;100.00
39141;BME280;24875;48.436;10.298;2023-07-31T02:21:29;96297.53;;;15.92;100.00
39141;BME280;24875;48.436;10.298;2023-07-31T02:23:56;96291.16;;;15.93;100.00
39141;BME280;24875;48.436;10.298;2023-07-31T02:26:22;96280.34;;;15.95;100.00
39141;BME280;24875;48.436;10.298;2023-07-31T02:28:49;96276.88;;;15.88;100.00
39141;BME280;24875;48.436;10.298;2023-07-31T02:31:15;96280.53;;;15.93;100.00
39141;BME280;24875;48.436;10.298;2023-07-31T02:33:43;96280.34;;;16.01;100.00
39141;BME280;24875;48.436;10.298;2023-07-31T02:36:09;96281.22;;;15.76;100.00
39141;BME280;24875;48.436;10.298;2023-07-31T02:38:36;96279.38;;;15.70;100.00
39141;BME280;24875;48.436;10.298;2023-07-31T02:41:02;96294.06;;;15.85;100.00
39141;BME280;24875;48.436;10.298;2023-07-31T02:43:29;96282.66;;;15.72;100.00
39141;BME280;24875;48.436;10.298;2023-07-31T02:45:55;96295.72;;;15.80;100.00
39141;BME280;24875;48.436;10.298;2023-07-31T02:48:22;96293.69;;;15.69;100.00
39141;BME280;24875;48.436;10.298;2023-07-31T02:50:50;96296.94;;;15.84;100.00
39141;BME280;24875;48.436;10.298;2023-07-31T02:53:16;96296.16;;;15.71;100.00
39141;BME280;24875;48.436;10.298;2023-07-31T02:55:43;96294.09;;;15.73;100.00
39141;BME280;24875;48.436;10.298;2023-07-31T02:58:09;96285.50;;;15.77;100.00
39141;BME280;24875;48.436;10.298;2023-07-31T03:00:35;96282.22;;;15.82;100.00
39141;BME280;24875;48.436;10.298;2023-07-31T03:03:02;96282.84;;;15.84;100.00
39141;BME280;24875;48.436;10.298;2023-07-31T03:05:29;96284.25;;;15.92;100.00
39141;BME280;24875;48.436;10.298;2023-07-31T03:07:56;96278.66;;;16.13;100.00
39141;BME280;24875;48.436;10.298;2023-07-31T03:10:23;96280.16;;;15.96;100.00
39141;BME280;24875;48.436;10.298;2023-07-31T03:12:49;96292.81;;;15.94;100.00
39141;BME280;24875;48.436;10.298;2023-07-31T03:15:16;96291.19;;;15.87;100.00
39141;BME280;24875;48.436;10.298;2023-07-31T03:17:42;96284.06;;;15.87;100.00
39141;BME280;24875;48.436;10.298;2023-07-31T03:20:10;96278.06;;;16.05;100.00
39141;BME280;24875;48.436;10.298;2023-07-31T03:22:36;96279.53;;;15.94;100.00
39141;BME280;24875;48.436;10.298;2023-07-31T03:25:05;96281.28;;;16.26;100.00
39141;BME280;24875;48.436;10.298;2023-07-31T03:27:32;96275.81;;;16.02;100.00
39141;BME280;24875;48.436;10.298;2023-07-31T03:29:59;96270.06;;;16.11;100.00
39141;BME280;24875;48.436;10.298;2023-07-31T03:32:26;96272.94;;;16.10;100.00
39141;BME280;24875;48.436;10.298;2023-07-31T03:34:52;96268.03;;;16.07;100.00
39141;BME280;24875;48.436;10.298;2023-07-31T03:37:19;96268.66;;;16.09;100.00
39141;BME280;24875;48.436;10.298;2023-07-31T03:39:45;96274.78;;;16.09;100.00
39141;BME280;24875;48.436;10.298;2023-07-31T03:42:13;96267.75;;;16.34;100.00
39141;BME280;24875;48.436;10.298;2023-07-31T03:44:40;96267.81;;;16.15;100.00
39141;BME280;24875;48.436;10.298;2023-07-31T03:47:06;96275.81;;;16.08;100.00
39141;BME280;24875;48.436;10.298;2023-07-31T03:49:33;96273.09;;;16.21;100.00
39141;BME280;24875;48.436;10.298;2023-07-31T03:51:59;96274.16;;;16.27;100.00
39141;BME280;24875;48.436;10.298;2023-07-31T03:54:26;96265.72;;;16.23;100.00
39141;BME280;24875;48.436;10.298;2023-07-31T03:56:52;96264.91;;;16.29;100.00
39141;BME280;24875;48.436;10.298;2023-07-31T03:59:20;96259.56;;;16.42;100.00
39141;BME280;24875;48.436;10.298;2023-07-31T04:01:47;96258.56;;;16.24;100.00
39141;BME280;24875;48.436;10.298;2023-07-31T04:04:13;96260.41;;;16.23;100.00
39141;BME280;24875;48.436;10.298;2023-07-31T04:06:40;96256.34;;;16.27;100.00
39141;BME280;24875;48.436;10.298;2023-07-31T04:09:06;96251.00;;;16.27;100.00
39141;BME280;24875;48.436;10.298;2023-07-31T04:11:33;96248.53;;;16.32;100.00
39141;BME280;24875;48.436;10.298;2023-07-31T04:13:59;96240.75;;;16.37;100.00
39141;BME280;24875;48.436;10.298;2023-07-31T04:16:27;96244.91;;;16.64;100.00
39141;BME280;24875;48.436;10.298;2023-07-31T04:18:53;96249.63;;;16.55;100.00
39141;BME280;24875;48.436;10.298;2023-07-31T04:21:20;96263.56;;;16.57;100.00
39141;BME280;24875;48.436;10.298;2023-07-31T04:23:46;96253.72;;;16.58;100.00
39141;BME280;24875;48.436;10.298;2023-07-31T04:26:13;96256.75;;;16.68;100.00
39141;BME280;24875;48.436;10.298;2023-07-31T04:28:39;96266.53;;;16.67;100.00
39141;BME280;24875;48.436;10.298;2023-07-31T04:31:06;96266.09;;;16.77;100.00
39141;BME280;24875;48.436;10.298;2023-07-31T04:33:33;96266.53;;;17.05;100.00
39141;BME280;24875;48.436;10.298;2023-07-31T04:36:00;96267.75;;;16.78;100.00
39141;BME280;24875;48.436;10.298;2023-07-31T04:38:26;96269.28;;;16.92;100.00
39141;BME280;24875;48.436;10.298;2023-07-31T04:40:53;96260.06;;;16.94;100.00
39141;BME280;24875;48.436;10.298;2023-07-31T04:43:19;96264.50;;;17.00;100.00
39141;BME280;24875;48.436;10.298;2023-07-31T04:45:46;96257.09;;;17.08;100.00
39141;BME280;24875;48.436;10.298;2023-07-31T04:48:13;96269.25;;;17.22;100.00
39141;BME280;24875;48.436;10.298;2023-07-31T04:50:41;96253.75;;;17.44;100.00
39141;BME280;24875;48.436;10.298;2023-07-31T04:53:08;96258.59;;;17.29;100.00
39141;BME280;24875;48.436;10.298;2023-07-31T04:55:34;96263.44;;;17.08;100.00
39141;BME280;24875;48.436;10.298;2023-07-31T04:58:01;96264.25;;;17.39;100.00
39141;BME280;24875;48.436;10.298;2023-07-31T05:00:27;96264.53;;;17.49;100.00
39141;BME280;24875;48.436;10.298;2023-07-31T05:02:54;96265.84;;;17.40;100.00
39141;BME280;24875;48.436;10.298;2023-07-31T05:05:20;96263.69;;;17.55;100.00
39141;BME280;24875;48.436;10.298;2023-07-31T05:07:48;96253.91;;;17.91;100.00
39141;BME280;24875;48.436;10.298;2023-07-31T05:10:15;96262.91;;;17.72;100.00
39141;BME280;24875;48.436;10.298;2023-07-31T05:12:41;96266.63;;;17.89;100.00
39141;BME280;24875;48.436;10.298;2023-07-31T05:15:08;96253.16;;;18.02;100.00
39141;BME280;24875;48.436;10.298;2023-07-31T05:17:35;96262.31;;;18.06;100.00
39141;BME280;24875;48.436;10.298;2023-07-31T05:20:01;96259.50;;;18.01;100.00
39141;BME280;24875;48.436;10.298;2023-07-31T05:22:28;96257.16;;;18.11;100.00
39141;BME280;24875;48.436;10.298;2023-07-31T05:24:56;96262.03;;;18.49;100.00
39141;BME280;24875;48.436;10.298;2023-07-31T05:27:23;96268.06;;;18.45;100.00
39141;BME280;24875;48.436;10.298;2023-07-31T05:29:49;96266.69;;;18.54;100.00
39141;BME280;24875;48.436;10.298;2023-07-31T05:32:15;96269.81;;;18.51;100.00
39141;BME280;24875;48.436;10.298;2023-07-31T05:34:42;96272.84;;;18.54;100.00
39141;BME280;24875;48.436;10.298;2023-07-31T05:37:10;96266.00;;;18.76;100.00
39141;BME280;24875;48.436;10.298;2023-07-31T05:39:37;96259.84;;;18.29;100.00
39141;BME280;24875;48.436;10.298;2023-07-31T05:42:05;96263.81;;;18.85;100.00
39141;BME280;24875;48.436;10.298;2023-07-31T05:44:32;96273.59;;;18.08;100.00
39141;BME280;24875;48.436;10.298;2023-07-31T05:46:58;96270.81;;;18.21;100.00
39141;BME280;24875;48.436;10.298;2023-07-31T05:49:24;96263.28;;;18.11;100.00
39141;BME280;24875;48.436;10.298;2023-07-31T05:51:51;96263.59;;;18.39;100.00
39141;BME280;24875;48.436;10.298;2023-07-31T05:54:17;96255.56;;;18.57;100.00
39141;BME280;24875;48.436;10.298;2023-07-31T05:56:44;96265.16;;;18.46;100.00
39141;BME280;24875;48.436;10.298;2023-07-31T05:59:12;96263.44;;;18.81;100.00
39141;BME280;24875;48.436;10.298;2023-07-31T06:01:39;96262.72;;;18.74;100.00
39141;BME280;24875;48.436;10.298;2023-07-31T06:04:06;96260.38;;;18.66;100.00
39141;BME280;24875;48.436;10.298;2023-07-31T06:06:32;96258.69;;;18.83;100.00
39141;BME280;24875;48.436;10.298;2023-07-31T06:08:59;96249.59;;;19.02;100.00
39141;BME280;24875;48.436;10.298;2023-07-31T06:11:25;96245.34;;;19.12;100.00
39141;BME280;24875;48.436;10.298;2023-07-31T06:13:52;96247.28;;;19.05;100.00
39141;BME280;24875;48.436;10.298;2023-07-31T06:16:20;96241.56;;;19.43;100.00
39141;BME280;24875;48.436;10.298;2023-07-31T06:18:46;96252.91;;;19.27;100.00
39141;BME280;24875;48.436;10.298;2023-07-31T06:21:13;96250.97;;;19.45;100.00
39141;BME280;24875;48.436;10.298;2023-07-31T06:23:40;96246.69;;;19.56;100.00
39141;BME280;24875;48.436;10.298;2023-07-31T06:26:06;96247.47;;;19.45;100.00
39141;BME280;24875;48.436;10.298;2023-07-31T06:28:33;96256.66;;;19.26;100.00
39141;BME280;24875;48.436;10.298;2023-07-31T06:30:59;96245.97;;;19.26;100.00
39141;BME280;24875;48.436;10.298;2023-07-31T06:33:27;96248.19;;;19.52;100.00
39141;BME280;24875;48.436;10.298;2023-07-31T06:35:54;96252.31;;;19.13;100.00
39141;BME280;24875;48.436;10.298;2023-07-31T06:38:23;96250.97;;;19.34;100.00
39141;BME280;24875;48.436;10.298;2023-07-31T06:40:50;96251.63;;;18.89;100.00
39141;BME280;24875;48.436;10.298;2023-07-31T06:43:17;96258.03;;;18.99;100.00
39141;BME280;24875;48.436;10.298;2023-07-31T06:45:43;96247.81;;;19.25;100.00
39141;BME280;24875;48.436;10.298;2023-07-31T06:48:11;96252.34;;;19.25;100.00
39141;BME280;24875;48.436;10.298;2023-07-31T06:50:38;96251.66;;;19.41;100.00
39141;BME280;24875;48.436;10.298;2023-07-31T06:53:05;96248.88;;;19.58;100.00
39141;BME280;24875;48.436;10.298;2023-07-31T06:55:32;96234.59;;;19.64;100.00
39141;BME280;24875;48.436;10.298;2023-07-31T06:57:58;96236.78;;;19.67;100.00
39141;BME280;24875;48.436;10.298;2023-07-31T07:00:25;96236.94;;;19.95;100.00
39141;BME280;24875;48.436;10.298;2023-07-31T07:02:51;96235.16;;;19.78;100.00
39141;BME280;24875;48.436;10.298;2023-07-31T07:05:18;96237.03;;;19.89;100.00
39141;BME280;24875;48.436;10.298;2023-07-31T07:07:46;96230.03;;;19.76;100.00
39141;BME280;24875;48.436;10.298;2023-07-31T07:10:12;96234.13;;;19.67;100.00
39141;BME280;24875;48.436;10.298;2023-07-31T07:12:39;96237.38;;;19.69;100.00
39141;BME280;24875;48.436;10.298;2023-07-31T07:15:06;96234.59;;;19.64;100.00
39141;BME280;24875;48.436;10.298;2023-07-31T07:17:33;96227.50;;;19.47;100.00
39141;BME280;24875;48.436;10.298;2023-07-31T07:19:59;96232.97;;;19.52;100.00
39141;BME280;24875;48.436;10.298;2023-07-31T07:22:26;96232.50;;;19.44;100.00
39141;BME280;24875;48.436;10.298;2023-07-31T07:24:54;96246.69;;;19.90;100.00
39141;BME280;24875;48.436;10.298;2023-07-31T07:27:21;96235.16;;;19.66;100.00
39141;BME280;24875;48.436;10.298;2023-07-31T07:29:50;96238.19;;;20.04;100.00
39141;BME280;24875;48.436;10.298;2023-07-31T07:32:16;96240.50;;;19.78;100.00
39141;BME280;24875;48.436;10.298;2023-07-31T07:34:43;96244.25;;;19.77;100.00
39141;BME280;24875;48.436;10.298;2023-07-31T07:37:11;96241.81;;;19.53;100.00
39141;BME280;24875;48.436;10.298;2023-07-31T07:39:37;96241.78;;;19.87;100.00
39141;BME280;24875;48.436;10.298;2023-07-31T07:42:05;96238.78;;;20.06;100.00
39141;BME280;24875;48.436;10.298;2023-07-31T07:44:32;96231.31;;;19.85;100.00
39141;BME280;24875;48.436;10.298;2023-07-31T07:46:59;96235.53;;;20.04;100.00
39141;BME280;24875;48.436;10.298;2023-07-31T07:49:25;96239.38;;;19.97;100.00
39141;BME280;24875;48.436;10.298;2023-07-31T07:51:52;96234.38;;;20.00;100.00
39141;BME280;24875;48.436;10.298;2023-07-31T07:54:18;96238.09;;;19.99;95.96
39141;BME280;24875;48.436;10.298;2023-07-31T07:56:46;96229.25;;;19.99;94.34
39141;BME280;24875;48.436;10.298;2023-07-31T07:59:14;96243.59;;;20.32;94.18
39141;BME280;24875;48.436;10.298;2023-07-31T08:01:41;96237.25;;;20.21;92.15
39141;BME280;24875;48.436;10.298;2023-07-31T08:04:07;96241.09;;;20.14;91.05
39141;BME280;24875;48.436;10.298;2023-07-31T08:06:34;96251.25;;;20.40;91.01
39141;BME280;24875;48.436;10.298;2023-07-31T08:09:00;96242.72;;;20.54;89.75
39141;BME280;24875;48.436;10.298;2023-07-31T08:11:30;96244.28;;;20.39;89.82
39141;BME280;24875;48.436;10.298;2023-07-31T08:13:57;96236.97;;;20.34;91.31
39141;BME280;24875;48.436;10.298;2023-07-31T08:16:25;96238.84;;;21.17;89.36
39141;BME280;24875;48.436;10.298;2023-07-31T08:18:51;96238.34;;;21.20;87.87
39141;BME280;24875;48.436;10.298;2023-07-31T08:21:18;96240.41;;;21.13;87.26
39141;BME280;24875;48.436;10.298;2023-07-31T08:23:44;96239.41;;;21.03;87.02
39141;BME280;24875;48.436;10.298;2023-07-31T08:26:14;96224.03;;;20.98;86.04
39141;BME280;24875;48.436;10.298;2023-07-31T08:28:41;96231.41;;;20.64;87.31
39141;BME280;24875;48.436;10.298;2023-07-31T08:31:07;96224.69;;;20.50;87.39
39141;BME280;24875;48.436;10.298;2023-07-31T08:33:35;96223.94;;;20.66;89.19
39141;BME280;24875;48.436;10.298;2023-07-31T08:36:02;96222.69;;;20.29;91.93
39141;BME280;24875;48.436;10.298;2023-07-31T08:38:29;96222.09;;;20.27;89.59
39141;BME280;24875;48.436;10.298;2023-07-31T08:40:56;96214.25;;;20.48;89.02
39141;BME280;24875;48.436;10.298;2023-07-31T08:43:25;96206.44;;;20.47;89.44
39141;BME280;24875;48.436;10.298;2023-07-31T08:45:52;96218.16;;;20.18;90.11
39141;BME280;24875;48.436;10.298;2023-07-31T08:48:20;96219.91;;;20.52;88.91
39141;BME280;24875;48.436;10.298;2023-07-31T08:50:49;96217.06;;;20.97;86.99
39141;BME280;24875;48.436;10.298;2023-07-31T08:53:15;96220.38;;;20.88;86.81
39141;BME280;24875;48.436;10.298;2023-07-31T08:55:43;96220.16;;;21.06;88.67
39141;BME280;24875;48.436;10.298;2023-07-31T08:58:12;96212.72;;;21.57;84.33
39141;BME280;24875;48.436;10.298;2023-07-31T09:00:39;96205.44;;;21.52;85.23
39141;BME280;24875;48.436;10.298;2023-07-31T09:03:08;96198.06;;;21.48;81.86
39141;BME280;24875;48.436;10.298;2023-07-31T09:05:36;96194.53;;;21.97;82.57
39141;BME280;24875;48.436;10.298;2023-07-31T09:08:08;96187.47;;;21.91;80.65
39141;BME280;24875;48.436;10.298;2023-07-31T09:10:35;96202.94;;;21.67;80.98
39141;BME280;24875;48.436;10.298;2023-07-31T09:13:06;96184.72;;;21.86;78.39
39141;BME280;24875;48.436;10.298;2023-07-31T09:15:33;96188.19;;;22.24;81.83
39141;BME280;24875;48.436;10.298;2023-07-31T09:18:01;96187.06;;;22.20;78.18
39141;BME280;24875;48.436;10.298;2023-07-31T09:20:28;96184.03;;;21.95;77.07
39141;BME280;24875;48.436;10.298;2023-07-31T09:22:56;96181.16;;;22.39;76.39
39141;BME280;24875;48.436;10.298;2023-07-31T09:25:32;96165.94;;;22.50;74.71
39141;BME280;24875;48.436;10.298;2023-07-31T09:28:01;96167.28;;;22.47;76.38
39141;BME280;24875;48.436;10.298;2023-07-31T09:30:27;96166.66;;;22.40;72.78
39141;BME280;24875;48.436;10.298;2023-07-31T09:33:00;96159.16;;;22.42;72.93
39141;BME280;24875;48.436;10.298;2023-07-31T09:35:29;96173.88;;;22.61;71.62
39141;BME280;24875;48.436;10.298;2023-07-31T09:37:57;96162.59;;;22.64;69.78
39141;BME280;24875;48.436;10.298;2023-07-31T09:40:28;96161.66;;;23.32;70.98
39141;BME280;24875;48.436;10.298;2023-07-31T09:42:58;96147.97;;;23.70;69.39
39141;BME280;24875;48.436;10.298;2023-07-31T09:45:25;96149.91;;;23.43;66.62
39141;BME280;24875;48.436;10.298;2023-07-31T09:47:53;96142.13;;;23.47;68.53
39141;BME280;24875;48.436;10.298;2023-07-31T09:50:20;96135.09;;;23.41;66.43
39141;BME280;24875;48.436;10.298;2023-07-31T09:52:47;96126.53;;;23.13;65.57
39141;BME280;24875;48.436;10.298;2023-07-31T09:55:14;96123.44;;;23.26;65.62
39141;BME280;24875;48.436;10.298;2023-07-31T09:57:42;96129.56;;;23.98;66.47
39141;BME280;24875;48.436;10.298;2023-07-31T10:00:11;96136.88;;;24.13;61.53
39141;BME280;24875;48.436;10.298;2023-07-31T10:02:39;96134.22;;;24.18;61.10
39141;BME280;24875;48.436;10.298;2023-07-31T10:05:07;96130.56;;;24.49;63.27
39141;BME280;24875;48.436;10.298;2023-07-31T10:07:36;96128.50;;;24.04;57.94
39141;BME280;24875;48.436;10.298;2023-07-31T10:10:05;96129.03;;;23.60;59.26
39141;BME280;24875;48.436;10.298;2023-07-31T10:12:33;96124.16;;;23.52;59.59
39141;BME280;24875;48.436;10.298;2023-07-31T10:15:01;96128.22;;;23.55;59.53
39141;BME280;24875;48.436;10.298;2023-07-31T10:17:29;96122.66;;;24.27;59.99
39141;BME280;24875;48.436;10.298;2023-07-31T10:19:58;96121.31;;;24.35;58.37
39141;BME280;24875;48.436;10.298;2023-07-31T10:22:25;96110.06;;;23.77;58.36
39141;BME280;24875;48.436;10.298;2023-07-31T10:24:54;96098.22;;;23.83;58.59
39141;BME280;24875;48.436;10.298;2023-07-31T10:27:21;96091.41;;;23.65;58.58
39141;BME280;24875;48.436;10.298;2023-07-31T10:29:48;96083.50;;;23.95;58.97
39141;BME280;24875;48.436;10.298;2023-07-31T10:32:17;96092.72;;;24.14;57.51
39141;BME280;24875;48.436;10.298;2023-07-31T10:34:45;96085.28;;;24.41;58.26
39141;BME280;24875;48.436;10.298;2023-07-31T10:37:23;96081.59;;;24.86;57.79
39141;BME280;24875;48.436;10.298;2023-07-31T10:40:00;96073.47;;;25.01;56.09
39141;BME280;24875;48.436;10.298;2023-07-31T10:42:32;96076.16;;;24.61;55.80
39141;BME280;24875;48.436;10.298;2023-07-31T10:45:02;96067.00;;;24.57;57.27
39141;BME280;24875;48.436;10.298;2023-07-31T10:47:28;96077.22;;;24.46;58.90
39141;BME280;24875;48.436;10.298;2023-07-31T10:50:16;96070.75;;;24.56;56.26
39141;BME280;24875;48.436;10.298;2023-07-31T10:52:46;96064.28;;;24.57;57.80
39141;BME280;24875;48.436;10.298;2023-07-31T10:55:32;96056.53;;;24.81;56.20
39141;BME280;24875;48.436;10.298;2023-07-31T10:58:05;96048.13;;;24.97;55.78
39141;BME280;24875;48.436;10.298;2023-07-31T11:00:33;96045.97;;;24.79;55.80
39141;BME280;24875;48.436;10.298;2023-07-31T11:03:01;96044.38;;;25.03;55.72
39141;BME280;24875;48.436;10.298;2023-07-31T11:05:47;96040.31;;;25.01;55.09
39141;BME280;24875;48.436;10.298;2023-07-31T11:08:15;96033.06;;;24.81;55.42
39141;BME280;24875;48.436;10.298;2023-07-31T11:10:42;96028.19;;;24.93;55.67
39141;BME280;24875;48.436;10.298;2023-07-31T11:13:08;96022.22;;;25.36;53.99
39141;BME280;24875;48.436;10.298;2023-07-31T11:15:35;96027.06;;;25.39;55.43
39141;BME280;24875;48.436;10.298;2023-07-31T11:18:03;96031.44;;;24.80;54.52
39141;BME280;24875;48.436;10.298;2023-07-31T11:20:31;96024.97;;;24.66;54.58
39141;BME280;24875;48.436;10.298;2023-07-31T11:23:01;96013.38;;;25.16;54.17
39141;BME280;24875;48.436;10.298;2023-07-31T11:25:29;96025.22;;;25.19;54.11
39141;BME280;24875;48.436;10.298;2023-07-31T11:27:56;96016.25;;;25.49;56.08
39141;BME280;24875;48.436;10.298;2023-07-31T11:30:23;96021.25;;;25.90;52.98
39141;BME280;24875;48.436;10.298;2023-07-31T11:32:49;96025.06;;;25.84;52.65
39141;BME280;24875;48.436;10.298;2023-07-31T11:35:17;96018.38;;;25.62;53.76
39141;BME280;24875;48.436;10.298;2023-07-31T11:37:44;96007.16;;;25.98;53.91
39141;BME280;24875;48.436;10.298;2023-07-31T11:40:12;96011.66;;;26.17;53.27
39141;BME280;24875;48.436;10.298;2023-07-31T11:42:39;96012.75;;;26.59;53.07
39141;BME280;24875;48.436;10.298;2023-07-31T11:45:07;96009.66;;;26.76;52.61
39141;BME280;24875;48.436;10.298;2023-07-31T11:47:35;96007.53;;;26.68;51.86
39141;BME280;24875;48.436;10.298;2023-07-31T11:50:02;96016.69;;;26.39;52.31
39141;BME280;24875;48.436;10.298;2023-07-31T11:52:30;96008.34;;;26.30;52.00
39141;BME280;24875;48.436;10.298;2023-07-31T11:54:59;96009.78;;;26.13;52.78
39141;BME280;24875;48.436;10.298;2023-07-31T11:57:27;96011.16;;;26.10;53.43
39141;BME280;24875;48.436;10.298;2023-07-31T11:59:55;96010.22;;;25.86;52.84
39141;BME280;24875;48.436;10.298;2023-07-31T12:02:23;96009.66;;;25.89;52.38
39141;BME280;24875;48.436;10.298;2023-07-31T12:04:50;96010.78;;;25.69;53.15
39141;BME280;24875;48.436;10.298;2023-07-31T12:07:16;96014.19;;;25.94;53.25
39141;BME280;24875;48.436;10.298;2023-07-31T12:09:51;96011.34;;;25.66;53.74
39141;BME280;24875;48.436;10.298;2023-07-31T12:12:20;96008.75;;;25.36;53.93
39141;BME280;24875;48.436;10.298;2023-07-31T12:14:48;95997.13;;;25.30;54.10
39141;BME280;24875;48.436;10.298;2023-07-31T12:17:17;95999.03;;;25.30;54.49
39141;BME280;24875;48.436;10.298;2023-07-31T12:19:45;95990.72;;;24.92;55.05
39141;BME280;24875;48.436;10.298;2023-07-31T12:22:12;95984.81;;;24.85;55.93
39141;BME280;24875;48.436;10.298;2023-07-31T12:24:39;95979.88;;;25.26;54.67
39141;BME280;24875;48.436;10.298;2023-07-31T12:27:10;95982.75;;;25.60;54.12
39141;BME280;24875;48.436;10.298;2023-07-31T12:29:38;95979.59;;;25.33;54.12
39141;BME280;24875;48.436;10.298;2023-07-31T12:32:20;95967.06;;;25.67;54.73
39141;BME280;24875;48.436;10.298;2023-07-31T12:34:46;95955.84;;;25.45;54.62
39141;BME280;24875;48.436;10.298;2023-07-31T12:37:13;95967.56;;;25.79;53.82
39141;BME280;24875;48.436;10.298;2023-07-31T12:39:39;95966.47;;;25.84;55.59
39141;BME280;24875;48.436;10.298;2023-07-31T12:42:06;95966.28;;;25.66;54.13
39141;BME280;24875;48.436;10.298;2023-07-31T12:44:33;95962.91;;;25.31;56.12